Time;durP1;ratioP1;P1;durP2;ratioP2;P2;SDS_P1;SDS_P2;PMS_P1;PMS_P2;Temp;Humidity;BMP_temperature;BMP_pressure;BME280_temperature;BME280_humidity;BME280_pressure;Samples;Min_cycle;Max_cycle;Signal;HPM_P1;HPM_P2
2024/01/21 00:00:24;;;;;;;4.57;3.73;;;;;;;1.68;49.84;103272.88;5045374;28;20231;-81
2024/01/21 00:02:50;;;;;;;5.90;4.13;;;;;;;1.71;49.59;103247.34;5045791;28;20213;-81
2024/01/21 00:05:17;;;;;;;7.47;6.17;;;;;;;1.61;49.67;103229.53;5043229;28;20200;-82
2024/01/21 00:07:44;;;;;;;5.60;5.10;;;;;;;1.65;51.67;103213.50;5043116;28;20230;-80
2024/01/21 00:10:11;;;;;;;55.80;30.97;;;;;;;1.53;51.12;103190.44;5043578;28;20242;-81
2024/01/21 00:12:38;;;;;;;7.33;6.07;;;;;;;1.52;52.68;103149.16;5042514;28;20207;-81
2024/01/21 00:15:05;;;;;;;5.50;4.77;;;;;;;1.24;51.07;103133.69;5043704;28;20204;-81
2024/01/21 00:17:31;;;;;;;6.23;5.63;;;;;;;1.19;51.46;103125.69;5042837;28;20262;-82
2024/01/21 00:19:58;;;;;;;6.47;5.83;;;;;;;1.16;50.64;103108.34;5043453;28;20201;-81
2024/01/21 00:22:26;;;;;;;6.70;6.10;;;;;;;1.32;52.93;103092.19;5045048;28;20214;-81
2024/01/21 00:24:52;;;;;;;5.70;5.07;;;;;;;1.34;52.50;103076.84;5039509;28;20202;-81
2024/01/21 00:27:18;;;;;;;5.63;5.13;;;;;;;1.27;51.65;103060.16;5053109;28;20258;-82
2024/01/21 00:29:45;;;;;;;6.20;5.70;;;;;;;1.41;51.85;103058.44;5053084;28;20723;-83
2024/01/21 00:32:11;;;;;;;5.67;5.07;;;;;;;1.27;51.28;103055.00;5061722;28;20616;-82
2024/01/21 00:34:37;;;;;;;4.73;4.23;;;;;;;1.06;51.98;103056.25;5057616;28;20667;-82
2024/01/21 00:37:04;;;;;;;6.63;6.00;;;;;;;1.13;52.38;103040.38;5065227;28;20668;-82
2024/01/21 00:39:33;;;;;;;4.63;4.23;;;;;;;1.16;51.29;103036.31;5065971;28;20232;-82
2024/01/21 00:41:59;;;;;;;4.77;4.33;;;;;;;1.27;51.10;103037.00;5057371;28;20634;-81
2024/01/21 00:44:26;;;;;;;4.10;3.47;;;;;;;1.26;48.28;103052.34;5062254;28;20228;-82
2024/01/21 00:46:52;;;;;;;4.17;3.70;;;;;;;1.24;48.17;103084.81;5053559;28;20194;-82
2024/01/21 00:49:19;;;;;;;4.43;3.60;;;;;;;1.32;47.29;103099.91;5061020;28;20297;-82
2024/01/21 00:51:45;;;;;;;4.00;3.60;;;;;;;1.44;48.27;103114.34;5048589;28;20212;-82
2024/01/21 00:54:11;;;;;;;3.40;3.10;;;;;;;1.16;46.61;103174.34;5035210;28;20356;-82
2024/01/21 00:56:39;;;;;;;3.50;2.93;;;;;;;1.50;48.60;103164.50;5065222;28;20225;-82
2024/01/21 00:59:05;;;;;;;5.00;3.93;;;;;;;1.55;47.75;103175.09;5057228;28;20643;-81
2024/01/21 01:01:37;;;;;;;4.03;3.57;;;;;;;1.44;46.42;103192.44;5062008;28;20743;-82
2024/01/21 01:04:04;;;;;;;4.40;3.90;;;;;;;1.40;46.65;103221.34;5053428;28;20210;-81
2024/01/21 01:06:30;;;;;;;2.97;2.63;;;;;;;1.37;46.57;103229.75;5052659;28;20267;-80
2024/01/21 01:08:57;;;;;;;2.90;2.63;;;;;;;1.46;47.47;103233.72;5060223;28;20283;-79
2024/01/21 01:11:24;;;;;;;3.43;2.90;;;;;;;1.53;47.70;103234.19;5055716;28;20263;-82
2024/01/21 01:13:52;;;;;;;3.40;3.00;;;;;;;1.48;47.47;103220.13;5057231;28;20222;-82
2024/01/21 01:16:18;;;;;;;4.43;2.93;;;;;;;1.53;48.05;103217.88;5065646;28;20267;-82
2024/01/21 01:18:45;;;;;;;3.77;3.47;;;;;;;1.47;46.24;103225.22;5056615;28;20228;-82
2024/01/21 01:21:11;;;;;;;3.13;2.80;;;;;;;1.27;45.99;103224.81;5055191;28;20872;-82
2024/01/21 01:23:40;;;;;;;3.27;2.83;;;;;;;1.46;46.35;103226.88;5036700;28;20870;-83
2024/01/21 01:26:07;;;;;;;3.40;3.10;;;;;;;1.35;46.48;103226.19;5053004;28;20198;-80
2024/01/21 01:28:33;;;;;;;3.40;3.10;;;;;;;1.40;47.06;103234.22;5064563;28;20252;-82
2024/01/21 01:31:01;;;;;;;2.93;2.40;;;;;;;1.23;45.35;103257.97;5064793;28;20204;-82
2024/01/21 01:33:27;;;;;;;2.73;2.53;;;;;;;1.49;46.36;103265.69;5064303;28;20271;-82
2024/01/21 01:35:54;;;;;;;2.60;2.40;;;;;;;1.49;44.76;103276.00;5062488;28;20221;-81
2024/01/21 01:38:20;;;;;;;3.20;2.90;;;;;;;1.53;45.07;103292.53;5059786;28;20229;-83
2024/01/21 01:40:46;;;;;;;3.00;2.70;;;;;;;1.55;46.11;103290.94;5062916;28;20202;-83
2024/01/21 01:43:13;;;;;;;3.13;2.33;;;;;;;1.45;45.17;103297.19;5056085;28;20206;-82
2024/01/21 01:45:39;;;;;;;2.37;2.17;;;;;;;1.43;44.05;103306.47;5057066;28;20209;-81
2024/01/21 01:48:07;;;;;;;2.53;2.33;;;;;;;1.33;45.84;103314.41;5055982;28;20314;-80
2024/01/21 01:50:34;;;;;;;2.87;2.33;;;;;;;1.27;44.52;103316.53;5063540;28;20742;-82
2024/01/21 01:53:00;;;;;;;3.30;2.23;;;;;;;1.47;44.68;103316.19;5048237;28;20201;-82
2024/01/21 01:55:27;;;;;;;2.43;2.23;;;;;;;1.41;45.09;103307.16;5055446;28;20237;-81
2024/01/21 01:57:54;;;;;;;2.60;2.40;;;;;;;1.49;45.64;103306.88;5056232;28;20224;-80
2024/01/21 02:00:20;;;;;;;2.67;2.40;;;;;;;1.42;44.63;103314.97;5064546;28;20619;-82
2024/01/21 02:02:47;;;;;;;2.63;2.27;;;;;;;1.65;45.68;103306.19;5055653;28;20228;-79
2024/01/21 02:05:14;;;;;;;2.60;1.97;;;;;;;1.68;45.74;103296.06;5055672;28;20232;-82
2024/01/21 02:07:41;;;;;;;2.93;2.63;;;;;;;1.69;45.58;103295.28;5060136;28;20205;-81
2024/01/21 02:10:08;;;;;;;2.93;2.60;;;;;;;1.57;44.62;103313.41;5059194;28;20201;-80
2024/01/21 02:12:34;;;;;;;3.70;2.37;;;;;;;1.35;43.70;103324.00;5055824;28;20234;-82
2024/01/21 02:15:02;;;;;;;2.63;2.43;;;;;;;1.65;44.67;103308.75;5064361;28;20265;-80
2024/01/21 02:17:28;;;;;;;2.40;2.20;;;;;;;1.73;45.20;103311.81;5055363;28;20236;-82
2024/01/21 02:19:55;;;;;;;3.03;2.80;;;;;;;1.41;44.29;103328.66;5054984;28;20263;-80
2024/01/21 02:22:25;;;;;;;3.23;2.60;;;;;;;1.28;45.10;103321.78;5063317;28;20250;-82
2024/01/21 02:24:52;;;;;;;2.80;2.43;;;;;;;1.40;46.23;103301.13;5046800;28;20210;-82
2024/01/21 02:27:19;;;;;;;3.77;3.17;;;;;;;1.31;45.33;103303.09;5055252;28;20292;-82
2024/01/21 02:29:45;;;;;;;2.93;2.63;;;;;;;1.49;46.86;103269.97;5055019;28;20230;-81
2024/01/21 02:32:11;;;;;;;2.93;2.70;;;;;;;1.28;45.60;103246.28;5054620;28;20270;-80
2024/01/21 02:34:38;;;;;;;3.90;2.87;;;;;;;1.34;46.27;103242.41;5050610;28;20207;-82
2024/01/21 02:37:04;;;;;;;3.70;3.00;;;;;;;1.54;47.36;103211.91;5044253;28;20598;-82
2024/01/21 02:39:30;;;;;;;3.13;2.93;;;;;;;1.64;46.16;103226.25;5054058;28;20724;-82
2024/01/21 02:41:58;;;;;;;3.20;2.77;;;;;;;1.38;44.86;103230.66;5055206;28;20709;-81
2024/01/21 02:44:25;;;;;;;3.23;2.93;;;;;;;1.62;45.16;103227.84;5054976;28;20283;-82
2024/01/21 02:46:51;;;;;;;2.90;2.50;;;;;;;1.72;46.17;103215.63;5055302;28;20193;-81
2024/01/21 02:49:17;;;;;;;2.97;2.67;;;;;;;1.53;45.95;103215.31;5055385;28;20300;-81
2024/01/21 02:51:44;;;;;;;3.37;2.70;;;;;;;1.54;45.50;103207.66;5055573;28;20257;-81
2024/01/21 02:54:10;;;;;;;3.53;3.10;;;;;;;1.60;45.44;103199.44;5055279;28;20279;-82
2024/01/21 02:56:36;;;;;;;4.03;3.23;;;;;;;1.55;46.08;103216.28;5055142;28;20276;-80
2024/01/21 02:59:04;;;;;;;2.97;2.77;;;;;;;1.51;45.33;103219.47;5062899;28;20250;-82
2024/01/21 03:01:30;;;;;;;3.90;2.93;;;;;;;1.52;45.92;103231.53;5062893;28;20213;-79
2024/01/21 03:03:57;;;;;;;3.27;2.70;;;;;;;1.23;44.56;103225.44;5062760;28;20203;-82
2024/01/21 03:06:23;;;;;;;3.90;2.60;;;;;;;1.35;45.33;103235.63;5038034;28;20631;-81
2024/01/21 03:08:49;;;;;;;2.97;2.60;;;;;;;1.33;45.91;103214.03;5062503;28;20224;-82
2024/01/21 03:11:16;;;;;;;3.07;2.77;;;;;;;1.39;44.62;103204.13;5054398;28;20225;-82
2024/01/21 03:13:42;;;;;;;3.17;2.90;;;;;;;1.32;45.33;103222.53;5050178;28;20201;-82
2024/01/21 03:16:11;;;;;;;3.30;3.00;;;;;;;1.53;45.76;103197.28;5058939;28;20672;-82
2024/01/21 03:18:38;;;;;;;4.27;3.20;;;;;;;1.59;46.56;103195.09;5054456;28;20271;-81
2024/01/21 03:21:05;;;;;;;3.53;3.23;;;;;;;1.47;44.37;103205.50;5054956;28;20662;-81
2024/01/21 03:23:31;;;;;;;3.33;3.00;;;;;;;1.51;44.21;103191.16;5054366;28;20207;-82
2024/01/21 03:25:58;;;;;;;3.23;2.93;;;;;;;1.52;43.74;103203.22;5062468;28;20199;-80
2024/01/21 03:28:24;;;;;;;3.10;2.23;;;;;;;1.64;45.18;103203.09;5054496;28;20223;-81
2024/01/21 03:30:51;;;;;;;2.93;2.70;;;;;;;1.59;44.18;103207.97;5062413;28;20673;-81
2024/01/21 03:33:18;;;;;;;2.87;2.67;;;;;;;1.64;43.22;103215.97;5053660;28;20672;-81
2024/01/21 03:35:45;;;;;;;5.17;3.43;;;;;;;1.75;45.31;103207.22;5042357;28;20309;-82
2024/01/21 03:38:11;;;;;;;2.80;2.60;;;;;;;1.73;42.97;103190.78;5041644;28;20300;-79
2024/01/21 03:40:38;;;;;;;3.43;3.13;;;;;;;1.84;45.10;103189.75;5062445;28;20201;-83
2024/01/21 03:43:04;;;;;;;3.40;3.10;;;;;;;1.64;44.19;103187.63;5059943;28;20197;-82
2024/01/21 03:45:31;;;;;;;3.30;2.70;;;;;;;1.81;44.91;103173.25;5056107;28;20693;-83
2024/01/21 03:47:57;;;;;;;3.20;2.90;;;;;;;1.60;43.76;103168.53;5054742;28;20586;-80
2024/01/21 03:50:25;;;;;;;3.83;3.10;;;;;;;1.80;45.44;103151.72;5061776;28;20636;-80
2024/01/21 03:52:51;;;;;;;3.67;3.37;;;;;;;1.82;45.63;103139.84;5054366;28;20201;-82
2024/01/21 03:55:19;;;;;;;3.47;3.17;;;;;;;1.88;46.35;103135.06;5053411;28;20207;-81
2024/01/21 03:57:46;;;;;;;3.60;3.30;;;;;;;1.90;46.22;103125.75;5057061;28;20267;-81
2024/01/21 04:00:13;;;;;;;5.30;3.03;;;;;;;1.93;46.83;103109.59;5058421;28;20211;-81
2024/01/21 04:02:40;;;;;;;3.60;3.30;;;;;;;2.01;46.16;103100.63;5053761;28;20256;-82
2024/01/21 04:05:08;;;;;;;3.40;3.10;;;;;;;2.01;46.77;103085.19;5047060;28;20273;-82
2024/01/21 04:07:35;;;;;;;3.50;3.20;;;;;;;1.99;45.80;103073.88;5035171;28;20260;-80
2024/01/21 04:10:03;;;;;;;4.43;3.03;;;;;;;2.07;46.60;103072.66;5053514;28;20201;-80
2024/01/21 04:12:29;;;;;;;3.13;2.83;;;;;;;1.96;45.26;103064.31;5053611;28;20206;-81
2024/01/21 04:14:55;;;;;;;3.73;3.07;;;;;;;2.03;45.44;103069.81;5061828;28;20207;-81
2024/01/21 04:17:23;;;;;;;3.00;2.73;;;;;;;1.61;43.40;103080.22;5053311;28;20722;-82
2024/01/21 04:19:50;;;;;;;3.27;2.97;;;;;;;1.90;45.62;103087.13;5052929;28;20259;-81
2024/01/21 04:22:18;;;;;;;3.90;3.60;;;;;;;2.03;45.61;103070.69;5044257;28;20219;-81
2024/01/21 04:24:46;;;;;;;3.03;2.73;;;;;;;1.71;43.56;103074.84;5044863;28;20249;-82
2024/01/21 04:27:12;;;;;;;3.23;2.70;;;;;;;1.85;43.92;103082.50;5061675;28;20615;-81
2024/01/21 04:29:39;;;;;;;3.53;3.23;;;;;;;2.03;45.21;103073.28;5053717;28;20224;-81
2024/01/21 04:32:05;;;;;;;3.93;3.20;;;;;;;2.03;45.23;103062.97;5118265;22;20248;-77
2024/01/21 04:34:32;;;;;;;3.90;2.97;;;;;;;1.81;43.48;103072.81;5070498;28;20482;-76
2024/01/21 04:36:58;;;;;;;3.20;2.90;;;;;;;2.02;44.67;103063.75;5070610;28;20262;-77
2024/01/21 04:39:24;;;;;;;3.57;2.93;;;;;;;2.08;44.06;103056.41;5069440;28;20251;-77
2024/01/21 04:41:52;;;;;;;3.73;3.20;;;;;;;2.14;44.89;103050.69;5070910;28;20229;-77
2024/01/21 04:44:18;;;;;;;3.60;3.30;;;;;;;2.23;44.28;103050.34;5070622;28;20204;-77
2024/01/21 04:46:45;;;;;;;3.20;2.90;;;;;;;1.90;43.95;103055.31;5069929;28;20230;-77
2024/01/21 04:49:11;;;;;;;4.53;3.60;;;;;;;2.05;44.60;103057.91;5069419;28;20205;-77
2024/01/21 04:51:38;;;;;;;4.10;3.13;;;;;;;2.05;44.20;103055.34;5074689;28;20843;-77
2024/01/21 04:54:04;;;;;;;3.60;3.30;;;;;;;2.05;44.16;103048.47;5074448;28;20205;-76
2024/01/21 04:56:31;;;;;;;3.97;3.47;;;;;;;1.79;43.45;103057.25;5074749;28;20256;-76
2024/01/21 04:58:58;;;;;;;3.73;3.43;;;;;;;1.84;44.15;103073.84;5074330;28;20201;-76
2024/01/21 05:01:26;;;;;;;3.57;3.27;;;;;;;1.91;44.01;103049.38;5074146;28;20224;-76
2024/01/21 05:03:53;;;;;;;4.23;3.67;;;;;;;2.04;44.06;103036.38;5075010;28;20240;-76
2024/01/21 05:06:19;;;;;;;4.37;3.53;;;;;;;1.86;42.79;103051.66;5070561;28;20696;-76
2024/01/21 05:08:46;;;;;;;3.97;3.57;;;;;;;1.90;43.36;103048.50;5074782;28;20205;-76
2024/01/21 05:11:13;;;;;;;3.97;3.67;;;;;;;2.01;43.71;103056.84;5074154;28;20719;-76
2024/01/21 05:13:39;;;;;;;3.80;3.50;;;;;;;1.70;42.50;103074.72;5074204;28;20631;-76
2024/01/21 05:16:07;;;;;;;3.93;3.63;;;;;;;1.86;43.31;103077.41;5074632;28;20656;-76
2024/01/21 05:18:34;;;;;;;3.67;3.30;;;;;;;1.92;43.53;103064.94;5073550;28;20293;-76
2024/01/21 05:21:00;;;;;;;4.17;3.73;;;;;;;1.90;42.81;103056.22;5074327;28;20225;-76
2024/01/21 05:23:26;;;;;;;3.87;3.50;;;;;;;2.05;44.02;103058.78;5074060;28;20212;-76
2024/01/21 05:25:54;;;;;;;3.53;3.23;;;;;;;2.01;43.02;103063.69;5073829;28;20208;-76
2024/01/21 05:28:21;;;;;;;4.13;3.73;;;;;;;2.06;43.18;103054.53;5074382;28;20205;-77
2024/01/21 05:30:47;;;;;;;3.83;3.53;;;;;;;2.12;43.05;103055.78;5074024;28;20221;-76
2024/01/21 05:33:15;;;;;;;3.30;3.00;;;;;;;2.10;43.13;103051.31;5073314;28;20255;-76
2024/01/21 05:35:41;;;;;;;4.50;3.77;;;;;;;2.03;42.57;103042.34;5074368;28;20209;-76
2024/01/21 05:38:08;;;;;;;3.90;3.17;;;;;;;2.13;42.70;103051.50;5074490;28;20263;-76
2024/01/21 05:40:34;;;;;;;3.57;3.27;;;;;;;1.91;41.75;103055.41;5073756;28;20298;-76
2024/01/21 05:43:01;;;;;;;3.77;3.30;;;;;;;2.02;41.96;103061.16;5073326;28;20203;-76
2024/01/21 05:45:28;;;;;;;3.47;3.17;;;;;;;2.03;42.64;103054.34;5073276;28;20206;-76
2024/01/21 05:47:54;;;;;;;3.83;3.20;;;;;;;2.12;41.14;103068.66;5072954;28;20666;-76
2024/01/21 05:50:22;;;;;;;3.20;2.90;;;;;;;2.11;42.41;103064.28;5072960;28;20843;-76
2024/01/21 05:52:48;;;;;;;3.40;3.10;;;;;;;2.05;40.96;103075.94;5073501;28;20225;-76
2024/01/21 05:55:14;;;;;;;3.13;2.83;;;;;;;2.27;41.70;103080.66;5073504;28;20263;-76
2024/01/21 05:57:41;;;;;;;3.07;2.67;;;;;;;2.25;41.68;103080.56;5072510;28;20222;-76
2024/01/21 06:00:08;;;;;;;3.47;3.17;;;;;;;2.37;41.65;103085.53;5073560;28;20270;-76
2024/01/21 06:02:35;;;;;;;3.47;3.17;;;;;;;2.41;42.75;103076.28;5072641;28;20286;-76
2024/01/21 06:05:01;;;;;;;3.33;3.03;;;;;;;2.32;40.85;103069.81;5073215;28;20206;-76
2024/01/21 06:07:29;;;;;;;3.80;3.50;;;;;;;2.39;41.90;103074.50;5073606;28;20203;-76
2024/01/21 06:09:55;;;;;;;3.90;3.30;;;;;;;2.45;42.02;103080.81;5072776;28;20238;-76
2024/01/21 06:12:22;;;;;;;3.63;3.33;;;;;;;2.48;41.80;103069.00;5073976;28;20668;-76
2024/01/21 06:14:48;;;;;;;3.90;3.27;;;;;;;2.42;41.13;103066.06;5071832;28;20231;-76
2024/01/21 06:17:14;;;;;;;4.20;3.43;;;;;;;2.45;42.26;103063.66;5072132;28;20239;-76
2024/01/21 06:19:41;;;;;;;3.80;3.40;;;;;;;2.34;41.94;103070.78;5071762;28;20202;-76
2024/01/21 06:22:07;;;;;;;3.63;3.33;;;;;;;2.37;42.16;103062.34;5072882;28;20225;-77
2024/01/21 06:24:36;;;;;;;3.53;3.23;;;;;;;2.43;42.21;103046.34;5071482;28;20207;-76
2024/01/21 06:27:03;;;;;;;4.20;3.70;;;;;;;2.26;41.77;103048.84;5072215;28;20198;-76
2024/01/21 06:29:29;;;;;;;3.97;3.67;;;;;;;2.49;42.02;103037.25;5072686;28;20204;-75
2024/01/21 06:31:55;;;;;;;3.30;3.07;;;;;;;2.43;42.28;103029.16;5073083;28;20643;-76
2024/01/21 06:34:22;;;;;;;4.20;3.80;;;;;;;2.56;42.20;103016.19;5072879;28;20207;-76
2024/01/21 06:36:48;;;;;;;3.10;2.90;;;;;;;2.61;42.83;103013.84;5073226;28;20213;-75
2024/01/21 06:39:14;;;;;;;3.93;3.63;;;;;;;2.58;42.40;103004.25;5072680;28;20230;-76
2024/01/21 06:41:42;;;;;;;3.83;3.43;;;;;;;2.43;42.00;103003.41;5073062;28;20295;-76
2024/01/21 06:44:09;;;;;;;3.57;3.27;;;;;;;2.55;42.92;102985.13;5073016;28;20218;-76
2024/01/21 06:46:35;;;;;;;4.57;3.73;;;;;;;2.64;42.20;102983.06;5072894;28;20206;-76
2024/01/21 06:49:01;;;;;;;4.40;3.97;;;;;;;2.41;41.64;102991.22;5072121;28;20203;-77
2024/01/21 06:51:34;;;;;;;3.63;3.33;;;;;;;2.45;41.83;102991.47;5072817;28;20236;-77
2024/01/21 06:54:02;;;;;;;6.87;3.90;;;;;;;2.53;42.10;102979.91;5064830;28;20722;-77
2024/01/21 06:56:28;;;;;;;4.07;3.73;;;;;;;2.48;41.59;102995.91;5073547;28;20206;-77
2024/01/21 06:58:56;;;;;;;3.63;3.33;;;;;;;2.57;42.49;102981.84;5073835;28;20217;-77
2024/01/21 07:01:22;;;;;;;4.43;4.00;;;;;;;2.50;42.39;102982.31;5074820;28;20231;-77
2024/01/21 07:03:48;;;;;;;4.30;3.87;;;;;;;2.53;42.53;102973.84;5073549;28;20212;-77
2024/01/21 07:06:15;;;;;;;4.00;3.60;;;;;;;2.56;41.67;102967.19;5073984;28;20201;-77
2024/01/21 07:08:42;;;;;;;3.83;3.53;;;;;;;2.50;43.24;102947.94;5073659;28;20205;-76
2024/01/21 07:11:09;;;;;;;4.00;3.57;;;;;;;2.41;43.65;102934.53;5072733;28;20229;-77
2024/01/21 07:13:35;;;;;;;3.83;3.20;;;;;;;2.18;42.06;102942.75;5072981;28;20263;-77
2024/01/21 07:16:03;;;;;;;4.10;3.70;;;;;;;2.05;42.19;102948.03;5072927;28;20307;-77
2024/01/21 07:18:29;;;;;;;4.27;3.90;;;;;;;2.24;42.88;102912.97;5072339;28;20275;-76
2024/01/21 07:20:56;;;;;;;3.63;3.33;;;;;;;2.22;42.36;102897.44;5073973;28;20233;-76
2024/01/21 07:23:22;;;;;;;3.87;3.30;;;;;;;2.25;42.73;102901.88;5073439;28;20201;-77
2024/01/21 07:25:49;;;;;;;4.67;4.27;;;;;;;2.27;42.96;102900.25;5069375;28;20733;-77
2024/01/21 07:28:15;;;;;;;5.10;4.43;;;;;;;2.24;43.08;102898.41;5071082;28;20258;-77
2024/01/21 07:30:42;;;;;;;4.53;4.13;;;;;;;2.02;42.38;102887.72;5067984;28;20292;-77
2024/01/21 07:33:08;;;;;;;4.60;4.20;;;;;;;2.10;41.82;102874.47;5070199;28;20250;-78
2024/01/21 07:35:35;;;;;;;4.47;4.07;;;;;;;2.21;42.28;102887.03;5070179;28;20294;-77
2024/01/21 07:38:01;;;;;;;4.07;3.67;;;;;;;2.30;42.19;102852.34;5068962;28;20221;-78
2024/01/21 07:40:28;;;;;;;20.97;12.47;;;;;;;2.18;42.19;102864.56;5070962;28;20260;-77
2024/01/21 07:42:54;;;;;;;12.23;7.77;;;;;;;2.23;41.76;102872.56;5069205;28;20209;-78
2024/01/21 07:45:20;;;;;;;41.87;16.70;;;;;;;2.10;41.24;102860.69;5070453;28;20254;-77
2024/01/21 07:47:47;;;;;;;10.50;9.50;;;;;;;2.17;42.11;102857.66;5066880;28;20202;-76
2024/01/21 07:50:14;;;;;;;3.93;3.63;;;;;;;2.23;40.95;102880.28;5068651;28;20206;-77
2024/01/21 07:52:43;;;;;;;4.33;3.93;;;;;;;2.17;42.09;102880.84;5066908;28;20222;-77
2024/01/21 07:55:09;;;;;;;3.30;3.00;;;;;;;2.40;41.48;102866.63;5063302;28;20197;-77
2024/01/21 07:57:36;;;;;;;3.60;3.10;;;;;;;2.39;41.50;102899.22;5068362;28;20202;-77
2024/01/21 08:00:03;;;;;;;3.50;3.20;;;;;;;2.41;40.56;102893.28;5069334;28;20281;-77
2024/01/21 08:02:30;;;;;;;3.30;3.00;;;;;;;2.55;40.65;102900.06;5067759;28;20226;-77
2024/01/21 08:04:56;;;;;;;3.53;3.10;;;;;;;2.46;40.70;102912.44;5063201;28;20203;-77
2024/01/21 08:07:26;;;;;;;4.00;3.70;;;;;;;2.64;42.37;102900.56;5066727;28;20201;-77
2024/01/21 08:09:52;;;;;;;7.87;4.50;;;;;;;2.81;45.02;102878.22;5065414;28;20202;-76
2024/01/21 08:12:18;;;;;;;3.60;3.00;;;;;;;2.76;41.63;102869.38;5066658;28;20704;-77
2024/01/21 08:14:45;;;;;;;3.47;3.17;;;;;;;2.85;43.87;102877.59;5066464;28;20258;-77
2024/01/21 08:17:11;;;;;;;3.77;3.47;;;;;;;2.85;43.29;102882.75;5072027;28;20621;-76
2024/01/21 08:19:38;;;;;;;3.50;3.20;;;;;;;2.85;42.99;102879.28;5071498;28;20271;-77
2024/01/21 08:22:04;;;;;;;4.83;4.10;;;;;;;2.86;44.23;102856.16;5071643;28;20229;-76
2024/01/21 08:24:32;;;;;;;3.50;3.20;;;;;;;2.89;43.19;102855.41;5071122;28;20686;-77
2024/01/21 08:26:58;;;;;;;3.70;3.20;;;;;;;2.75;41.39;102863.31;5071123;28;20215;-76
2024/01/21 08:29:27;;;;;;;3.20;2.90;;;;;;;3.03;44.07;102856.13;5071373;28;20209;-77
2024/01/21 08:31:55;;;;;;;2.97;2.77;;;;;;;2.89;40.90;102882.09;5070854;28;20237;-76
2024/01/21 08:34:21;;;;;;;3.30;3.00;;;;;;;2.80;40.30;102899.69;5065570;28;20205;-76
2024/01/21 08:36:48;;;;;;;2.77;2.57;;;;;;;2.79;40.51;102892.75;5068496;28;20198;-76
2024/01/21 08:39:15;;;;;;;3.00;2.80;;;;;;;2.89;40.79;102889.81;5068615;28;20229;-76
2024/01/21 08:41:42;;;;;;;3.40;3.10;;;;;;;2.98;42.08;102889.44;5067839;28;20247;-76
2024/01/21 08:44:09;;;;;;;4.90;3.13;;;;;;;3.14;42.32;102861.03;5065585;28;20896;-76
2024/01/21 08:46:35;;;;;;;3.30;3.00;;;;;;;3.13;41.09;102846.38;5070155;28;20213;-76
2024/01/21 08:49:02;;;;;;;5.67;2.87;;;;;;;3.14;40.59;102861.03;5070145;28;20247;-76
2024/01/21 08:51:29;;;;;;;3.27;2.97;;;;;;;3.17;41.85;102871.50;5071160;28;20320;-76
2024/01/21 08:53:56;;;;;;;3.47;3.20;;;;;;;3.14;40.83;102889.41;5070094;28;20295;-76
2024/01/21 08:56:23;;;;;;;3.77;3.47;;;;;;;3.13;40.48;102899.66;5073109;28;20292;-78
2024/01/21 08:58:51;;;;;;;3.67;3.27;;;;;;;2.98;40.45;102912.66;5076037;28;20225;-79
2024/01/21 09:01:17;;;;;;;3.83;3.53;;;;;;;3.16;41.32;102876.59;5076713;28;20228;-79
2024/01/21 09:03:44;;;;;;;3.23;2.93;;;;;;;2.90;41.70;102891.63;5072363;28;20259;-77
2024/01/21 09:06:11;;;;;;;4.67;3.70;;;;;;;3.14;41.30;102883.38;5072710;28;20205;-76
2024/01/21 09:08:37;;;;;;;3.00;2.70;;;;;;;3.04;40.59;102889.75;5071206;28;20200;-77
2024/01/21 09:11:05;;;;;;;2.73;2.40;;;;;;;3.13;41.19;102897.06;5070819;28;20288;-76
2024/01/21 09:13:31;;;;;;;2.87;2.67;;;;;;;3.26;41.01;102891.72;5071256;28;20208;-77
2024/01/21 09:15:59;;;;;;;3.77;3.03;;;;;;;3.33;41.48;102926.47;5072053;28;20292;-77
2024/01/21 09:18:25;;;;;;;2.80;2.60;;;;;;;3.29;41.90;102935.78;5071535;28;20659;-77
2024/01/21 09:20:52;;;;;;;2.70;2.50;;;;;;;3.21;40.94;102943.91;5071392;28;20638;-77
2024/01/21 09:23:18;;;;;;;4.00;2.83;;;;;;;3.06;41.42;102956.91;5070751;28;20656;-76
2024/01/21 09:25:44;;;;;;;3.43;3.13;;;;;;;3.20;41.47;102957.66;5070373;28;20201;-76
2024/01/21 09:28:11;;;;;;;3.23;2.83;;;;;;;3.18;43.30;102979.09;5074168;28;20201;-77
2024/01/21 09:30:38;;;;;;;3.43;2.67;;;;;;;2.99;41.37;102966.00;5059095;28;20264;-77
2024/01/21 09:33:06;;;;;;;3.63;3.33;;;;;;;3.18;42.09;102962.72;5071548;28;20211;-77
2024/01/21 09:35:32;;;;;;;5.00;3.00;;;;;;;3.28;42.72;102953.75;5074033;28;20259;-76
2024/01/21 09:37:58;;;;;;;3.10;2.80;;;;;;;3.40;43.20;102948.34;5074438;28;20205;-76
2024/01/21 09:40:25;;;;;;;3.57;2.83;;;;;;;3.45;44.08;102918.47;5073489;28;20259;-76
2024/01/21 09:42:51;;;;;;;4.60;3.20;;;;;;;3.64;44.50;102877.25;5073518;28;20645;-76
2024/01/21 09:45:20;;;;;;;3.90;2.97;;;;;;;3.67;44.20;102833.50;5067694;28;20212;-76
2024/01/21 09:47:48;;;;;;;3.30;2.43;;;;;;;3.49;45.56;102797.38;5070770;28;20209;-76
2024/01/21 09:50:20;;;;;;;3.13;2.70;;;;;;;3.61;47.31;102760.91;5073681;28;20207;-77
2024/01/21 09:52:46;;;;;;;3.20;2.90;;;;;;;3.57;45.18;102756.41;5066364;28;20274;-77
2024/01/21 09:55:13;;;;;;;3.37;2.90;;;;;;;3.64;45.35;102717.13;5067756;28;20197;-77
2024/01/21 09:57:40;;;;;;;3.53;3.23;;;;;;;3.53;44.18;102728.69;5071221;28;20209;-77
2024/01/21 10:00:07;;;;;;;3.80;3.50;;;;;;;3.56;45.44;102727.09;5073528;28;20576;-77
2024/01/21 10:02:34;;;;;;;3.57;3.20;;;;;;;3.48;45.42;102724.97;5073384;28;20716;-77
2024/01/21 10:05:01;;;;;;;3.47;2.67;;;;;;;3.51;45.46;102715.69;5073247;28;20259;-77
2024/01/21 10:07:30;;;;;;;3.47;3.03;;;;;;;3.58;46.04;102694.50;5074208;28;20201;-77
2024/01/21 10:09:57;;;;;;;3.73;2.83;;;;;;;3.77;45.53;102687.59;5073755;28;20256;-77
2024/01/21 10:12:24;;;;;;;3.33;2.73;;;;;;;3.50;43.56;102687.22;5073239;28;20308;-77
2024/01/21 10:14:50;;;;;;;3.63;3.33;;;;;;;3.83;45.47;102693.03;5073986;28;20578;-77
2024/01/21 10:17:23;;;;;;;3.40;3.10;;;;;;;3.59;43.97;102695.41;5073932;28;20201;-77
2024/01/21 10:19:51;;;;;;;4.13;3.77;;;;;;;3.71;44.25;102711.44;5072705;28;20226;-77
2024/01/21 10:22:18;;;;;;;3.83;3.53;;;;;;;3.69;43.63;102719.94;5072309;28;20735;-77
2024/01/21 10:24:48;;;;;;;3.10;2.80;;;;;;;3.52;42.60;102763.91;5068632;28;20209;-77
2024/01/21 10:27:15;;;;;;;5.53;3.70;;;;;;;3.73;42.43;102768.34;5065710;28;20205;-77
2024/01/21 10:29:43;;;;;;;3.70;3.40;;;;;;;3.78;43.46;102777.19;5072591;28;20201;-78
2024/01/21 10:32:10;;;;;;;3.10;2.80;;;;;;;3.53;43.82;102778.63;5072760;28;20270;-77
2024/01/21 10:34:36;;;;;;;3.30;3.00;;;;;;;3.76;44.79;102740.94;5072809;28;20233;-77
2024/01/21 10:37:04;;;;;;;3.40;3.10;;;;;;;3.77;44.22;102719.47;5071500;28;20903;-77
2024/01/21 10:39:32;;;;;;;2.70;2.43;;;;;;;3.80;45.17;102728.19;5053194;28;20226;-77
2024/01/21 10:42:00;;;;;;;4.63;3.23;;;;;;;3.73;43.98;102701.19;5071050;28;20590;-77
2024/01/21 10:44:27;;;;;;;3.33;3.03;;;;;;;3.69;43.75;102692.41;5072834;28;20251;-77
2024/01/21 10:46:54;;;;;;;3.10;2.80;;;;;;;3.65;44.07;102720.59;5072755;28;20204;-77
2024/01/21 10:49:21;;;;;;;4.07;3.57;;;;;;;3.61;42.90;102750.59;5076042;28;20212;-77
2024/01/21 10:51:48;;;;;;;3.70;3.40;;;;;;;3.65;42.92;102734.41;5060808;28;20257;-77
2024/01/21 10:54:14;;;;;;;3.80;3.40;;;;;;;3.92;43.92;102715.81;5071995;28;20653;-77
2024/01/21 10:56:40;;;;;;;3.53;3.23;;;;;;;3.93;43.36;102710.72;5072266;28;20254;-77
2024/01/21 10:59:10;;;;;;;4.20;3.80;;;;;;;4.04;43.97;102687.94;5071941;28;20225;-77
2024/01/21 11:01:36;;;;;;;3.77;3.47;;;;;;;4.19;43.56;102685.16;5072454;28;20268;-77
2024/01/21 11:04:06;;;;;;;3.70;3.27;;;;;;;4.09;43.29;102714.88;5072083;28;20259;-77
2024/01/21 11:06:33;;;;;;;3.30;3.00;;;;;;;4.15;42.56;102683.25;5072530;28;20205;-77
2024/01/21 11:09:01;;;;;;;3.37;3.07;;;;;;;4.31;43.14;102664.13;5071982;28;20566;-77
2024/01/21 11:11:27;;;;;;;3.50;3.20;;;;;;;4.26;43.40;102670.78;5072642;28;20214;-77
2024/01/21 11:13:54;;;;;;;3.37;3.07;;;;;;;4.32;43.52;102648.69;5072720;28;20279;-77
2024/01/21 11:16:37;;;;;;;3.33;3.03;;;;;;;4.24;43.08;102678.50;5072463;28;20279;-77
2024/01/21 11:19:06;;;;;;;3.67;3.37;;;;;;;4.30;43.33;102683.91;5071767;28;20235;-77
2024/01/21 11:21:34;;;;;;;4.03;3.70;;;;;;;4.17;42.82;102689.38;5075292;28;20779;-77
2024/01/21 11:24:03;;;;;;;4.00;3.70;;;;;;;4.05;42.66;102723.31;5069485;28;20197;-77
2024/01/21 11:26:30;;;;;;;3.80;3.17;;;;;;;4.28;44.01;102719.16;5072312;28;20800;-77
2024/01/21 11:28:58;;;;;;;3.93;3.57;;;;;;;4.15;43.42;102714.25;5071540;28;20210;-76
2024/01/21 11:31:25;;;;;;;3.87;3.57;;;;;;;4.31;43.61;102679.63;5072683;28;20769;-77